Terminal Aerodrome Forecast
Issued by NWS Wichita, KS

Home | Current Version | Previous Version | Graphics & Text | Print | Product List | Glossary On
Versions: 1 2 3 4 5 6 7 8 9 10 11 12 13
000
FTUS43 KICT 171722
TAFICT
TAF
KICT 171722Z 1718/1818 18013G19KT P6SM SCT050
     FM180100 16008KT P6SM SKC
     FM181500 18012KT P6SM FEW040=

USA.gov is the U.S. government's official web portal to all federal, state and local government web resources and services.